createdAt,value
2023-05-14T00:00:43.809Z,1006.75
2023-05-14T00:01:43.877Z,1006.74
2023-05-14T00:02:43.877Z,1006.74
2023-05-14T00:03:43.992Z,1006.74
2023-05-14T00:04:43.801Z,1006.73
2023-05-14T00:05:43.785Z,1006.73
2023-05-14T00:06:43.747Z,1006.72
2023-05-14T00:07:43.760Z,1006.71
2023-05-14T00:08:43.855Z,1006.71
2023-05-14T00:09:43.736Z,1006.70
2023-05-14T00:10:43.707Z,1006.68
2023-05-14T00:11:43.750Z,1006.67
2023-05-14T00:12:43.679Z,1006.65
2023-05-14T00:13:43.684Z,1006.64
2023-05-14T00:14:43.716Z,1006.63
2023-05-14T00:15:43.711Z,1006.63
2023-05-14T00:16:43.658Z,1006.63
2023-05-14T00:17:43.697Z,1006.63
2023-05-14T00:18:43.669Z,1006.63
2023-05-14T00:19:43.643Z,1006.63
2023-05-14T00:20:43.606Z,1006.64
2023-05-14T00:21:43.596Z,1006.63
2023-05-14T00:22:43.586Z,1006.62
2023-05-14T00:23:43.599Z,1006.60
2023-05-14T00:24:43.583Z,1006.59
2023-05-14T00:25:43.567Z,1006.58
2023-05-14T00:26:43.542Z,1006.57
2023-05-14T00:27:43.533Z,1006.56
2023-05-14T00:28:43.517Z,1006.55
2023-05-14T00:29:43.558Z,1006.54
2023-05-14T00:30:43.552Z,1006.53
2023-05-14T00:31:43.607Z,1006.52
2023-05-14T00:32:43.516Z,1006.51
2023-05-14T00:33:43.459Z,1006.50
2023-05-14T00:34:43.453Z,1006.49
2023-05-14T00:35:43.476Z,1006.47
2023-05-14T00:36:43.537Z,1006.46
2023-05-14T00:37:43.439Z,1006.45
2023-05-14T00:38:43.432Z,1006.43
2023-05-14T00:39:43.417Z,1006.44
2023-05-14T00:40:43.405Z,1006.44
2023-05-14T00:41:43.431Z,1006.43
2023-05-14T00:42:43.371Z,1006.41
2023-05-14T00:43:43.361Z,1006.40
2023-05-14T00:44:43.343Z,1006.38
2023-05-14T00:45:43.337Z,1006.37
2023-05-14T00:46:43.370Z,1006.35
2023-05-14T00:47:43.350Z,1006.35
2023-05-14T00:48:43.299Z,1006.33
2023-05-14T00:49:43.299Z,1006.32
2023-05-14T00:50:43.284Z,1006.32
2023-05-14T00:51:43.274Z,1006.31
2023-05-14T00:52:43.309Z,1006.30
2023-05-14T00:53:43.281Z,1006.29
2023-05-14T00:54:43.230Z,1006.28
2023-05-14T00:55:43.240Z,1006.27
2023-05-14T00:56:43.220Z,1006.25
2023-05-14T00:57:43.212Z,1006.25
2023-05-14T00:58:43.228Z,1006.25
2023-05-14T00:59:43.185Z,1006.25
2023-05-14T01:00:43.272Z,1006.24
2023-05-14T01:01:43.230Z,1006.24
2023-05-14T01:02:43.235Z,1006.24
2023-05-14T01:03:43.342Z,1006.25
2023-05-14T01:04:43.114Z,1006.24
2023-05-14T01:05:43.140Z,1006.23
2023-05-14T01:06:43.114Z,1006.22
2023-05-14T01:07:43.097Z,1006.22
2023-05-14T01:08:43.079Z,1006.21
2023-05-14T01:09:43.132Z,1006.21
2023-05-14T01:10:43.053Z,1006.21
2023-05-14T01:11:43.055Z,1006.21
2023-05-14T01:12:43.038Z,1006.19
2023-05-14T01:13:43.020Z,1006.19
2023-05-14T01:14:43.031Z,1006.19
2023-05-14T01:15:43.032Z,1006.19
2023-05-14T01:16:43.023Z,1006.18
2023-05-14T01:17:43.026Z,1006.18
2023-05-14T01:18:43.006Z,1006.17
2023-05-14T01:19:43.016Z,1006.17
2023-05-14T01:20:42.957Z,1006.16
2023-05-14T01:21:42.967Z,1006.15
2023-05-14T01:22:42.932Z,1006.15
2023-05-14T01:23:42.943Z,1006.15
2023-05-14T01:24:42.949Z,1006.15
2023-05-14T01:25:42.925Z,1006.14
2023-05-14T01:26:42.906Z,1006.13
2023-05-14T01:27:42.926Z,1006.13
2023-05-14T01:28:42.850Z,1006.13
2023-05-14T01:29:42.864Z,1006.12
2023-05-14T01:30:42.884Z,1006.12
2023-05-14T01:31:42.957Z,1006.13
2023-05-14T01:32:42.843Z,1006.13
2023-05-14T01:33:42.812Z,1006.12
2023-05-14T01:34:42.800Z,1006.11
2023-05-14T01:35:42.796Z,1006.11
2023-05-14T01:36:42.775Z,1006.11
2023-05-14T01:37:43.341Z,1006.12
2023-05-14T01:38:42.750Z,1006.12
2023-05-14T01:39:42.756Z,1006.12
2023-05-14T01:40:42.749Z,1006.13
2023-05-14T01:41:42.721Z,1006.12
2023-05-14T01:42:42.723Z,1006.12
2023-05-14T01:43:42.716Z,1006.12
2023-05-14T01:44:42.688Z,1006.13
2023-05-14T01:45:42.717Z,1006.14
2023-05-14T01:46:42.755Z,1006.15
2023-05-14T01:47:42.738Z,1006.15
2023-05-14T01:48:42.635Z,1006.14
2023-05-14T01:49:42.643Z,1006.14
2023-05-14T01:50:42.644Z,1006.12
2023-05-14T01:51:42.646Z,1006.11
2023-05-14T01:52:42.594Z,1006.10
2023-05-14T01:53:42.599Z,1006.09
2023-05-14T01:54:42.577Z,1006.07
2023-05-14T01:55:42.589Z,1006.06
2023-05-14T01:56:42.579Z,1006.05
2023-05-14T01:57:42.548Z,1006.04
2023-05-14T01:58:42.547Z,1006.02
2023-05-14T01:59:42.548Z,1006.01
2023-05-14T02:00:42.516Z,1006.01
2023-05-14T02:01:42.582Z,1006.02
2023-05-14T02:02:42.546Z,1006.03
2023-05-14T02:03:42.544Z,1006.03
2023-05-14T02:04:42.468Z,1006.04
2023-05-14T02:05:42.460Z,1006.06
2023-05-14T02:06:42.452Z,1006.06
2023-05-14T02:07:42.445Z,1006.06
2023-05-14T02:08:42.910Z,1006.06
2023-05-14T02:09:42.426Z,1006.07
2023-05-14T02:10:42.390Z,1006.07
2023-05-14T02:11:42.414Z,1006.08
2023-05-14T02:12:42.379Z,1006.07
2023-05-14T02:13:42.397Z,1006.07
2023-05-14T02:14:42.384Z,1006.05
2023-05-14T02:15:42.470Z,1006.05
2023-05-14T02:16:42.339Z,1006.03
2023-05-14T02:17:42.376Z,1006.03
2023-05-14T02:18:42.334Z,1006.01
2023-05-14T02:19:42.325Z,1006.00
2023-05-14T02:20:42.375Z,1006.00
2023-05-14T02:21:42.285Z,1006.00
2023-05-14T02:22:42.330Z,1006.00
2023-05-14T02:23:42.384Z,1005.99
2023-05-14T02:24:42.267Z,1005.97
2023-05-14T02:25:42.260Z,1005.95
2023-05-14T02:26:42.267Z,1005.95
2023-05-14T02:27:42.228Z,1005.95
2023-05-14T02:28:42.213Z,1005.95
2023-05-14T02:29:42.213Z,1005.95
2023-05-14T02:30:42.222Z,1005.95
2023-05-14T02:31:42.213Z,1005.95
2023-05-14T02:32:42.236Z,1005.94
2023-05-14T02:33:42.237Z,1005.93
2023-05-14T02:34:42.151Z,1005.91
2023-05-14T02:35:42.144Z,1005.91
2023-05-14T02:36:42.134Z,1005.92
2023-05-14T02:37:42.135Z,1005.91
2023-05-14T02:38:42.131Z,1005.90
2023-05-14T02:39:42.107Z,1005.89
2023-05-14T02:40:42.108Z,1005.89
2023-05-14T02:41:42.080Z,1005.88
2023-05-14T02:42:42.060Z,1005.87
2023-05-14T02:43:42.079Z,1005.87
2023-05-14T02:44:42.049Z,1005.87
2023-05-14T02:45:42.040Z,1005.87
2023-05-14T02:46:42.054Z,1005.87
2023-05-14T02:47:42.055Z,1005.87
2023-05-14T02:48:42.024Z,1005.85
2023-05-14T02:49:41.999Z,1005.85
2023-05-14T02:50:41.997Z,1005.85
2023-05-14T02:51:42.000Z,1005.84
2023-05-14T02:52:41.963Z,1005.85
2023-05-14T02:53:41.959Z,1005.85
2023-05-14T02:54:41.941Z,1005.85
2023-05-14T02:55:41.936Z,1005.86
2023-05-14T02:56:41.923Z,1005.86
2023-05-14T02:57:41.910Z,1005.86
2023-05-14T02:58:41.889Z,1005.85
2023-05-14T02:59:41.893Z,1005.86
2023-05-14T03:00:41.908Z,1005.85
2023-05-14T03:01:41.858Z,1005.85
2023-05-14T03:02:42.009Z,1005.85
2023-05-14T03:03:41.808Z,1005.84
2023-05-14T03:04:41.823Z,1005.82
2023-05-14T03:05:41.823Z,1005.81
2023-05-14T03:06:41.857Z,1005.79
2023-05-14T03:07:41.851Z,1005.77
2023-05-14T03:08:48.283Z,1005.76
2023-05-14T03:09:41.745Z,1005.75
2023-05-14T03:10:41.761Z,1005.75
2023-05-14T03:11:41.780Z,1005.75
2023-05-14T03:12:41.738Z,1005.75
2023-05-14T03:13:41.720Z,1005.75
2023-05-14T03:14:41.682Z,1005.74
2023-05-14T03:15:41.662Z,1005.75
2023-05-14T03:16:41.734Z,1005.74
2023-05-14T03:17:41.736Z,1005.73
2023-05-14T03:18:41.630Z,1005.73
2023-05-14T03:19:41.636Z,1005.74
2023-05-14T03:20:41.642Z,1005.73
2023-05-14T03:21:41.603Z,1005.73
2023-05-14T03:22:41.592Z,1005.73
2023-05-14T03:23:41.672Z,1005.73
2023-05-14T03:24:41.555Z,1005.73
2023-05-14T03:25:41.565Z,1005.72
2023-05-14T03:26:41.532Z,1005.72
2023-05-14T03:27:41.557Z,1005.71
2023-05-14T03:28:41.518Z,1005.70
2023-05-14T03:29:41.595Z,1005.71
2023-05-14T03:30:41.541Z,1005.71
2023-05-14T03:31:41.505Z,1005.71
2023-05-14T03:32:41.536Z,1005.70
2023-05-14T03:33:41.510Z,1005.69
2023-05-14T03:34:41.472Z,1005.68
2023-05-14T03:35:41.440Z,1005.68
2023-05-14T03:36:41.438Z,1005.66
2023-05-14T03:37:41.431Z,1005.65
2023-05-14T03:38:41.463Z,1005.65
2023-05-14T03:39:41.393Z,1005.65
2023-05-14T03:40:41.466Z,1005.65
2023-05-14T03:41:41.381Z,1005.65
2023-05-14T03:42:41.399Z,1005.66
2023-05-14T03:43:41.366Z,1005.67
2023-05-14T03:44:41.360Z,1005.66
2023-05-14T03:45:41.345Z,1005.65
2023-05-14T03:46:41.327Z,1005.63
2023-05-14T03:47:41.403Z,1005.62
2023-05-14T03:48:41.334Z,1005.62
2023-05-14T03:49:41.302Z,1005.61
2023-05-14T03:50:41.314Z,1005.61
2023-05-14T03:51:41.274Z,1005.61
2023-05-14T03:52:41.307Z,1005.60
2023-05-14T03:53:41.296Z,1005.59
2023-05-14T03:54:41.275Z,1005.57
2023-05-14T03:55:41.225Z,1005.56
2023-05-14T03:56:41.228Z,1005.55
2023-05-14T03:57:41.203Z,1005.54
2023-05-14T03:58:41.211Z,1005.53
2023-05-14T03:59:41.215Z,1005.53
2023-05-14T04:00:41.182Z,1005.53
2023-05-14T04:01:41.162Z,1005.53
2023-05-14T04:02:41.255Z,1005.53
2023-05-14T04:03:41.304Z,1005.53
2023-05-14T04:04:41.228Z,1005.53
2023-05-14T04:05:41.125Z,1005.52
2023-05-14T04:06:41.125Z,1005.52
2023-05-14T04:07:41.120Z,1005.52
2023-05-14T04:08:41.085Z,1005.52
2023-05-14T04:09:41.089Z,1005.52
2023-05-14T04:10:41.093Z,1005.52
2023-05-14T04:11:41.072Z,1005.53
2023-05-14T04:12:41.082Z,1005.52
2023-05-14T04:13:41.036Z,1005.53
2023-05-14T04:14:41.050Z,1005.53
2023-05-14T04:15:41.016Z,1005.55
2023-05-14T04:16:41.064Z,1005.57
2023-05-14T04:17:41.000Z,1005.54
2023-05-14T04:18:41.049Z,1005.52
2023-05-14T04:19:40.965Z,1005.50
2023-05-14T04:20:40.965Z,1005.48
2023-05-14T04:21:40.962Z,1005.47
2023-05-14T04:22:41.000Z,1005.46
2023-05-14T04:23:40.922Z,1005.46
2023-05-14T04:24:40.967Z,1005.47
2023-05-14T04:25:40.991Z,1005.49
2023-05-14T04:26:40.904Z,1005.49
2023-05-14T04:27:40.891Z,1005.52
2023-05-14T04:28:40.917Z,1005.52
2023-05-14T04:29:40.854Z,1005.49
2023-05-14T04:30:40.883Z,1005.48
2023-05-14T04:31:40.901Z,1005.48
2023-05-14T04:32:40.890Z,1005.47
2023-05-14T04:33:40.819Z,1005.48
2023-05-14T04:34:40.807Z,1005.46
2023-05-14T04:35:40.804Z,1005.46
2023-05-14T04:36:40.811Z,1005.46
2023-05-14T04:37:40.786Z,1005.47
2023-05-14T04:38:40.959Z,1005.47
2023-05-14T04:39:40.805Z,1005.48
2023-05-14T04:40:40.753Z,1005.48
2023-05-14T04:41:40.732Z,1005.49
2023-05-14T04:42:40.724Z,1005.48
2023-05-14T04:43:40.717Z,1005.48
2023-05-14T04:44:40.752Z,1005.47
2023-05-14T04:45:40.746Z,1005.47
2023-05-14T04:46:40.775Z,1005.49
2023-05-14T04:47:40.661Z,1005.51
2023-05-14T04:48:40.666Z,1005.51
2023-05-14T04:49:40.631Z,1005.49
2023-05-14T04:50:40.692Z,1005.49
2023-05-14T04:51:40.634Z,1005.50
2023-05-14T04:52:40.643Z,1005.50
2023-05-14T04:53:40.592Z,1005.48
2023-05-14T04:54:40.687Z,1005.46
2023-05-14T04:55:40.613Z,1005.44
2023-05-14T04:56:40.571Z,1005.44
2023-05-14T04:57:40.550Z,1005.44
2023-05-14T04:58:40.567Z,1005.45
2023-05-14T04:59:40.562Z,1005.46
2023-05-14T05:00:40.532Z,1005.46
2023-05-14T05:01:40.606Z,1005.47
2023-05-14T05:02:40.542Z,1005.48
2023-05-14T05:03:40.518Z,1005.50
2023-05-14T05:04:40.548Z,1005.52
2023-05-14T05:05:40.468Z,1005.55
2023-05-14T05:06:40.466Z,1005.57
2023-05-14T05:07:40.463Z,1005.57
2023-05-14T05:08:40.436Z,1005.57
2023-05-14T05:09:40.446Z,1005.58
2023-05-14T05:10:40.425Z,1005.59
2023-05-14T05:11:40.431Z,1005.59
2023-05-14T05:12:40.407Z,1005.58
2023-05-14T05:13:40.383Z,1005.55
2023-05-14T05:14:40.399Z,1005.53
2023-05-14T05:15:40.377Z,1005.54
2023-05-14T05:16:40.373Z,1005.57
2023-05-14T05:17:40.385Z,1005.59
2023-05-14T05:18:40.480Z,1005.59
2023-05-14T05:19:44.319Z,1005.60
2023-05-14T05:20:40.347Z,1005.60
2023-05-14T05:21:40.340Z,1005.61
2023-05-14T05:22:40.313Z,1005.61
2023-05-14T05:23:40.306Z,1005.61
2023-05-14T05:24:40.276Z,1005.60
2023-05-14T05:25:40.254Z,1005.60
2023-05-14T05:26:40.252Z,1005.63
2023-05-14T05:27:40.288Z,1005.62
2023-05-14T05:28:40.250Z,1005.60
2023-05-14T05:29:40.240Z,1005.62
2023-05-14T05:30:40.240Z,1005.63
2023-05-14T05:31:40.276Z,1005.64
2023-05-14T05:32:40.273Z,1005.64
2023-05-14T05:33:40.225Z,1005.65
2023-05-14T05:34:40.229Z,1005.67
2023-05-14T05:35:40.152Z,1005.65
2023-05-14T05:36:40.162Z,1005.63
2023-05-14T05:37:40.179Z,1005.62
2023-05-14T05:38:40.125Z,1005.60
2023-05-14T05:39:40.178Z,1005.59
2023-05-14T05:40:40.155Z,1005.60
2023-05-14T05:41:40.096Z,1005.60
2023-05-14T05:42:40.081Z,1005.61
2023-05-14T05:43:40.131Z,1005.62
2023-05-14T05:44:40.093Z,1005.62
2023-05-14T05:45:40.046Z,1005.63
2023-05-14T05:46:40.074Z,1005.62
2023-05-14T05:47:40.084Z,1005.62
2023-05-14T05:48:40.093Z,1005.61
2023-05-14T05:49:40.002Z,1005.61
2023-05-14T05:50:40.059Z,1005.63
2023-05-14T05:51:40.049Z,1005.66
2023-05-14T05:52:39.981Z,1005.69
2023-05-14T05:53:39.975Z,1005.70
2023-05-14T05:54:40.023Z,1005.71
2023-05-14T05:55:39.951Z,1005.72
2023-05-14T05:56:40.038Z,1005.72
2023-05-14T05:57:39.918Z,1005.72
2023-05-14T05:58:39.946Z,1005.72
2023-05-14T05:59:39.917Z,1005.75
2023-05-14T06:00:39.936Z,1005.75
2023-05-14T06:01:40.003Z,1005.76
2023-05-14T06:02:39.923Z,1005.76
2023-05-14T06:03:39.859Z,1005.77
2023-05-14T06:04:39.867Z,1005.75
2023-05-14T06:05:39.890Z,1005.75
2023-05-14T06:06:39.894Z,1005.74
2023-05-14T06:07:39.891Z,1005.74
2023-05-14T06:08:39.856Z,1005.76
2023-05-14T06:09:39.811Z,1005.77
2023-05-14T06:10:39.796Z,1005.79
2023-05-14T06:11:39.773Z,1005.79
2023-05-14T06:12:41.044Z,1005.79
2023-05-14T06:13:39.772Z,1005.78
2023-05-14T06:14:46.004Z,1005.78
2023-05-14T06:15:39.727Z,1005.78
2023-05-14T06:16:39.816Z,1005.79
2023-05-14T06:17:39.773Z,1005.78
2023-05-14T06:18:39.793Z,1005.77
2023-05-14T06:19:39.733Z,1005.77
2023-05-14T06:20:39.684Z,1005.78
2023-05-14T06:21:39.681Z,1005.79
2023-05-14T06:22:39.694Z,1005.82
2023-05-14T06:23:39.660Z,1005.83
2023-05-14T06:24:39.629Z,1005.84
2023-05-14T06:25:39.625Z,1005.85
2023-05-14T06:26:39.637Z,1005.85
2023-05-14T06:27:39.606Z,1005.86
2023-05-14T06:28:39.642Z,1005.86
2023-05-14T06:29:39.594Z,1005.85
2023-05-14T06:30:39.586Z,1005.85
2023-05-14T06:31:39.596Z,1005.86
2023-05-14T06:32:39.593Z,1005.88
2023-05-14T06:33:39.524Z,1005.88
2023-05-14T06:34:39.532Z,1005.88
2023-05-14T06:35:39.534Z,1005.88
2023-05-14T06:36:39.514Z,1005.89
2023-05-14T06:37:39.495Z,1005.89
2023-05-14T06:38:39.481Z,1005.89
2023-05-14T06:39:39.465Z,1005.88
2023-05-14T06:40:39.468Z,1005.88
2023-05-14T06:41:39.458Z,1005.87
2023-05-14T06:42:39.443Z,1005.87
2023-05-14T06:43:39.419Z,1005.88
2023-05-14T06:44:39.413Z,1005.87
2023-05-14T06:45:39.417Z,1005.86
2023-05-14T06:46:39.414Z,1005.85
2023-05-14T06:47:39.402Z,1005.84
2023-05-14T06:48:39.432Z,1005.85
2023-05-14T06:49:39.381Z,1005.84
2023-05-14T06:50:39.417Z,1005.84
2023-05-14T06:51:39.352Z,1005.82
2023-05-14T06:52:39.331Z,1005.82
2023-05-14T06:53:39.324Z,1005.80
2023-05-14T06:54:39.384Z,1005.80
2023-05-14T06:55:39.288Z,1005.79
2023-05-14T06:56:39.304Z,1005.79
2023-05-14T06:57:40.670Z,1005.77
2023-05-14T06:58:39.280Z,1005.76
2023-05-14T06:59:39.273Z,1005.77
2023-05-14T07:00:39.256Z,1005.76
2023-05-14T07:01:40.014Z,1005.76
2023-05-14T07:02:39.276Z,1005.76
2023-05-14T07:03:39.215Z,1005.76
2023-05-14T07:04:39.284Z,1005.74
2023-05-14T07:05:39.193Z,1005.74
2023-05-14T07:06:39.199Z,1005.73
2023-05-14T07:07:39.274Z,1005.72
2023-05-14T07:08:39.166Z,1005.72
2023-05-14T07:09:39.168Z,1005.72
2023-05-14T07:10:39.160Z,1005.71
2023-05-14T07:11:39.172Z,1005.70
2023-05-14T07:12:39.167Z,1005.69
2023-05-14T07:13:39.117Z,1005.71
2023-05-14T07:14:39.099Z,1005.70
2023-05-14T07:15:39.077Z,1005.70
2023-05-14T07:16:39.119Z,1005.70
2023-05-14T07:17:39.101Z,1005.69
2023-05-14T07:18:39.111Z,1005.70
2023-05-14T07:19:39.033Z,1005.70
2023-05-14T07:20:39.035Z,1005.69
2023-05-14T07:21:39.015Z,1005.69
2023-05-14T07:22:39.017Z,1005.69
2023-05-14T07:23:38.993Z,1005.70
2023-05-14T07:24:39.011Z,1005.71
2023-05-14T07:25:39.004Z,1005.71
2023-05-14T07:26:38.978Z,1005.70
2023-05-14T07:27:38.960Z,1005.70
2023-05-14T07:28:38.953Z,1005.71
2023-05-14T07:29:38.946Z,1005.71
2023-05-14T07:30:38.924Z,1005.71
2023-05-14T07:31:38.949Z,1005.72
2023-05-14T07:32:38.959Z,1005.71
2023-05-14T07:33:38.904Z,1005.70
2023-05-14T07:34:38.938Z,1005.70
2023-05-14T07:35:38.852Z,1005.71
2023-05-14T07:36:38.859Z,1005.72
2023-05-14T07:37:38.855Z,1005.71
2023-05-14T07:38:38.838Z,1005.72
2023-05-14T07:39:38.819Z,1005.72
2023-05-14T07:40:38.835Z,1005.71
2023-05-14T07:41:38.800Z,1005.70
2023-05-14T07:42:38.840Z,1005.70
2023-05-14T07:43:38.774Z,1005.70
2023-05-14T07:44:38.783Z,1005.70
2023-05-14T07:45:38.763Z,1005.69
2023-05-14T07:46:38.742Z,1005.69
2023-05-14T07:47:38.830Z,1005.67
2023-05-14T07:48:38.776Z,1005.66
2023-05-14T07:49:38.702Z,1005.64
2023-05-14T07:50:38.733Z,1005.64
2023-05-14T07:51:38.738Z,1005.63
2023-05-14T07:52:38.678Z,1005.61
2023-05-14T07:53:38.708Z,1005.62
2023-05-14T07:54:38.759Z,1005.59
2023-05-14T07:55:38.696Z,1005.60
2023-05-14T07:56:38.633Z,1005.59
2023-05-14T07:57:38.629Z,1005.59
2023-05-14T07:58:38.628Z,1005.59
2023-05-14T07:59:38.641Z,1005.60
2023-05-14T08:00:38.596Z,1005.60
2023-05-14T08:01:39.424Z,1005.61
2023-05-14T08:02:38.687Z,1005.59
2023-05-14T08:03:38.708Z,1005.59
2023-05-14T08:04:38.664Z,1005.59
2023-05-14T08:05:38.572Z,1005.58
2023-05-14T08:06:38.551Z,1005.56
2023-05-14T08:07:38.538Z,1005.56
2023-05-14T08:08:38.528Z,1005.57
2023-05-14T08:09:38.502Z,1005.57
2023-05-14T08:10:38.568Z,1005.56
2023-05-14T08:11:38.749Z,1005.58
2023-05-14T08:12:38.476Z,1005.55
2023-05-14T08:13:38.453Z,1005.56
2023-05-14T08:14:38.468Z,1005.58
2023-05-14T08:15:38.451Z,1005.57
2023-05-14T08:16:38.500Z,1005.56
2023-05-14T08:17:38.509Z,1005.55
2023-05-14T08:18:38.446Z,1005.54
2023-05-14T08:19:38.406Z,1005.55
2023-05-14T08:20:38.384Z,1005.58
2023-05-14T08:21:38.397Z,1005.58
2023-05-14T08:22:38.446Z,1005.57
2023-05-14T08:23:38.386Z,1005.59
2023-05-14T08:24:38.344Z,1005.60
2023-05-14T08:25:38.345Z,1005.63
2023-05-14T08:26:38.333Z,1005.64
2023-05-14T08:27:38.353Z,1005.64
2023-05-14T08:28:38.332Z,1005.65
2023-05-14T08:29:38.294Z,1005.63
2023-05-14T08:30:38.322Z,1005.62
2023-05-14T08:31:38.302Z,1005.61
2023-05-14T08:32:38.735Z,1005.60
2023-05-14T08:33:38.262Z,1005.59
2023-05-14T08:34:38.251Z,1005.58
2023-05-14T08:35:38.242Z,1005.60
2023-05-14T08:36:38.233Z,1005.61
2023-05-14T08:37:38.382Z,1005.61
2023-05-14T08:38:38.214Z,1005.60
2023-05-14T08:39:38.186Z,1005.57
2023-05-14T08:40:38.204Z,1005.58
2023-05-14T08:41:38.201Z,1005.59
2023-05-14T08:42:38.187Z,1005.58
2023-05-14T08:43:38.138Z,1005.58
2023-05-14T08:44:38.161Z,1005.58
2023-05-14T08:45:38.107Z,1005.57
2023-05-14T08:46:38.170Z,1005.55
2023-05-14T08:47:38.123Z,1005.54
2023-05-14T08:48:38.172Z,1005.51
2023-05-14T08:49:38.090Z,1005.51
2023-05-14T08:50:38.071Z,1005.49
2023-05-14T08:51:38.120Z,1005.49
2023-05-14T08:52:38.038Z,1005.48
2023-05-14T08:53:38.056Z,1005.47
2023-05-14T08:54:38.011Z,1005.46
2023-05-14T08:55:38.051Z,1005.46
2023-05-14T08:56:37.992Z,1005.46
2023-05-14T08:57:37.986Z,1005.46
2023-05-14T08:58:37.984Z,1005.48
2023-05-14T08:59:37.978Z,1005.50
2023-05-14T09:00:37.965Z,1005.49
2023-05-14T09:01:38.044Z,1005.47
2023-05-14T09:02:37.958Z,1005.50
2023-05-14T09:03:37.970Z,1005.50
2023-05-14T09:04:37.928Z,1005.49
2023-05-14T09:05:37.906Z,1005.49
2023-05-14T09:06:38.086Z,1005.48
2023-05-14T09:07:37.902Z,1005.48
2023-05-14T09:08:37.862Z,1005.47
2023-05-14T09:09:37.871Z,1005.46
2023-05-14T09:10:37.842Z,1005.50
2023-05-14T09:11:37.887Z,1005.48
2023-05-14T09:12:37.868Z,1005.46
2023-05-14T09:13:37.818Z,1005.48
2023-05-14T09:14:37.804Z,1005.47
2023-05-14T09:15:37.810Z,1005.47
2023-05-14T09:16:37.878Z,1005.47
2023-05-14T09:17:37.818Z,1005.47
2023-05-14T09:18:37.839Z,1005.47
2023-05-14T09:19:37.759Z,1005.44
2023-05-14T09:20:37.833Z,1005.44
2023-05-14T09:21:37.746Z,1005.44
2023-05-14T09:22:37.761Z,1005.42
2023-05-14T09:23:37.715Z,1005.43
2023-05-14T09:24:37.694Z,1005.42
2023-05-14T09:25:37.685Z,1005.43
2023-05-14T09:26:37.689Z,1005.42
2023-05-14T09:27:37.676Z,1005.40
2023-05-14T09:28:37.653Z,1005.38
2023-05-14T09:29:37.669Z,1005.37
2023-05-14T09:30:37.653Z,1005.39
2023-05-14T09:31:37.664Z,1005.37
2023-05-14T09:32:37.843Z,1005.37
2023-05-14T09:33:37.652Z,1005.35
2023-05-14T09:34:37.626Z,1005.37
2023-05-14T09:35:37.609Z,1005.35
2023-05-14T09:36:37.576Z,1005.33
2023-05-14T09:37:37.595Z,1005.33
2023-05-14T09:38:37.626Z,1005.32
2023-05-14T09:39:37.587Z,1005.33
2023-05-14T09:40:37.529Z,1005.33
2023-05-14T09:41:37.528Z,1005.31
2023-05-14T09:42:37.558Z,1005.29
2023-05-14T09:43:37.592Z,1005.28
2023-05-14T09:44:37.506Z,1005.27
2023-05-14T09:45:37.471Z,1005.25
2023-05-14T09:46:37.477Z,1005.25
2023-05-14T09:47:37.609Z,1005.22
2023-05-14T09:48:37.503Z,1005.24
2023-05-14T09:49:37.445Z,1005.22
2023-05-14T09:50:37.418Z,1005.20
2023-05-14T09:51:37.421Z,1005.19
2023-05-14T09:52:37.429Z,1005.18
2023-05-14T09:53:37.385Z,1005.18
2023-05-14T09:54:37.373Z,1005.17
2023-05-14T09:55:37.366Z,1005.15
2023-05-14T09:56:37.368Z,1005.16
2023-05-14T09:57:37.378Z,1005.16
2023-05-14T09:58:37.355Z,1005.14
2023-05-14T09:59:37.334Z,1005.13
2023-05-14T10:00:37.329Z,1005.14
2023-05-14T10:01:37.416Z,1005.14
2023-05-14T10:02:38.317Z,1005.15
2023-05-14T10:03:37.568Z,1005.14
2023-05-14T10:04:37.340Z,1005.14
2023-05-14T10:05:37.280Z,1005.14
2023-05-14T10:06:37.278Z,1005.14
2023-05-14T10:07:37.276Z,1005.10
2023-05-14T10:08:37.344Z,1005.09
2023-05-14T10:09:37.280Z,1005.08
2023-05-14T10:10:37.199Z,1005.07
2023-05-14T10:11:37.208Z,1005.06
2023-05-14T10:12:37.200Z,1005.04
2023-05-14T10:13:37.189Z,1005.04
2023-05-14T10:14:37.198Z,1005.01
2023-05-14T10:15:37.171Z,1005.01
2023-05-14T10:16:37.174Z,1005.01
2023-05-14T10:17:37.191Z,1005.03
2023-05-14T10:18:37.164Z,1005.02
2023-05-14T10:19:37.128Z,1005.04
2023-05-14T10:20:37.096Z,1005.01
2023-05-14T10:21:37.090Z,1005.00
2023-05-14T10:22:37.107Z,1005.00
2023-05-14T10:23:37.075Z,1004.98
2023-05-14T10:24:37.056Z,1004.97
2023-05-14T10:25:37.090Z,1004.96
2023-05-14T10:26:37.031Z,1004.92
2023-05-14T10:27:37.028Z,1004.92
2023-05-14T10:28:37.058Z,1004.94
2023-05-14T10:29:37.012Z,1004.92
2023-05-14T10:30:37.073Z,1004.91
2023-05-14T10:31:37.100Z,1004.90
2023-05-14T10:32:37.023Z,1004.90
2023-05-14T10:33:37.033Z,1004.89
2023-05-14T10:34:36.965Z,1004.90
2023-05-14T10:35:36.991Z,1004.89
2023-05-14T10:36:36.919Z,1004.88
2023-05-14T10:37:36.925Z,1004.86
2023-05-14T10:38:36.922Z,1004.83
2023-05-14T10:39:36.930Z,1004.81
2023-05-14T10:40:36.891Z,1004.81
2023-05-14T10:41:36.888Z,1004.80
2023-05-14T10:42:36.881Z,1004.79
2023-05-14T10:43:36.869Z,1004.78
2023-05-14T10:44:36.829Z,1004.80
2023-05-14T10:45:36.821Z,1004.80
2023-05-14T10:46:36.925Z,1004.78
2023-05-14T10:47:36.876Z,1004.79
2023-05-14T10:48:36.816Z,1004.78
2023-05-14T10:49:43.382Z,1004.77
2023-05-14T10:50:36.789Z,1004.78
2023-05-14T10:51:36.914Z,1004.76
2023-05-14T10:52:36.751Z,1004.78
2023-05-14T10:53:36.750Z,1004.79
2023-05-14T10:54:36.740Z,1004.79
2023-05-14T10:55:36.787Z,1004.76
2023-05-14T10:56:36.714Z,1004.75
2023-05-14T10:57:36.710Z,1004.72
2023-05-14T10:58:36.679Z,1004.72
2023-05-14T10:59:36.698Z,1004.72
2023-05-14T11:00:36.662Z,1004.71
2023-05-14T11:01:36.724Z,1004.72
2023-05-14T11:02:36.660Z,1004.72
2023-05-14T11:03:36.907Z,1004.70
2023-05-14T11:04:36.660Z,1004.68
2023-05-14T11:05:36.638Z,1004.67
2023-05-14T11:06:36.641Z,1004.66
2023-05-14T11:07:36.608Z,1004.68
2023-05-14T11:08:36.626Z,1004.66
2023-05-14T11:09:36.905Z,1004.66
2023-05-14T11:10:36.655Z,1004.67
2023-05-14T11:11:36.575Z,1004.68
2023-05-14T11:12:36.563Z,1004.68
2023-05-14T11:13:36.560Z,1004.70
2023-05-14T11:14:36.576Z,1004.70
2023-05-14T11:15:36.528Z,1004.71
2023-05-14T11:16:36.647Z,1004.71
2023-05-14T11:17:36.562Z,1004.69
2023-05-14T11:18:36.491Z,1004.67
2023-05-14T11:19:37.360Z,1004.66
2023-05-14T11:20:36.481Z,1004.64
2023-05-14T11:21:36.496Z,1004.61
2023-05-14T11:22:36.458Z,1004.59
2023-05-14T11:23:36.449Z,1004.52
2023-05-14T11:24:36.432Z,1004.54
2023-05-14T11:25:36.456Z,1004.55
2023-05-14T11:26:36.421Z,1004.52
2023-05-14T11:27:36.405Z,1004.50
2023-05-14T11:28:36.409Z,1004.51
2023-05-14T11:29:36.373Z,1004.48
2023-05-14T11:30:36.363Z,1004.48
2023-05-14T11:31:36.411Z,1004.50
2023-05-14T11:32:36.387Z,1004.50
2023-05-14T11:33:36.386Z,1004.50
2023-05-14T11:34:36.322Z,1004.49
2023-05-14T11:35:36.319Z,1004.48
2023-05-14T11:36:36.303Z,1004.49
2023-05-14T11:37:36.288Z,1004.44
2023-05-14T11:38:36.299Z,1004.43
2023-05-14T11:39:36.293Z,1004.40
2023-05-14T11:40:36.287Z,1004.39
2023-05-14T11:41:36.260Z,1004.37
2023-05-14T11:42:36.245Z,1004.36
2023-05-14T11:43:36.252Z,1004.35
2023-05-14T11:44:36.231Z,1004.33
2023-05-14T11:45:36.214Z,1004.34
2023-05-14T11:46:36.297Z,1004.35
2023-05-14T11:47:36.257Z,1004.35
2023-05-14T11:48:36.197Z,1004.35
2023-05-14T11:49:36.173Z,1004.30
2023-05-14T11:50:36.165Z,1004.30
2023-05-14T11:51:36.151Z,1004.28
2023-05-14T11:52:36.118Z,1004.32
2023-05-14T11:53:36.119Z,1004.32
2023-05-14T11:54:36.101Z,1004.31
2023-05-14T11:55:36.149Z,1004.31
2023-05-14T11:56:36.085Z,1004.30
2023-05-14T11:57:36.098Z,1004.30
2023-05-14T11:58:36.074Z,1004.31
2023-05-14T11:59:36.076Z,1004.31
2023-05-14T12:00:36.055Z,1004.30
2023-05-14T12:01:36.030Z,1004.30
2023-05-14T12:02:36.090Z,1004.27
2023-05-14T12:03:36.208Z,1004.25
2023-05-14T12:04:36.005Z,1004.26
2023-05-14T12:05:36.009Z,1004.26